Time;durP1;ratioP1;P1;durP2;ratioP2;P2;SDS_P1;SDS_P2;PMS_P1;PMS_P2;Temp;Humidity;BMP_temperature;BMP_pressure;BME280_temperature;BME280_humidity;BME280_pressure;Samples;Min_cycle;Max_cycle;Signal;HPM_P1;HPM_P2
2022/01/13 00:01:55;;;;;;;31.65;15.45;;;;;;;0.91;100.00;101450.72;5075867;28;20502;-78
2022/01/13 00:04:40;;;;;;;35.20;15.05;;;;;;;0.95;100.00;101444.00;5075789;28;20041;-78
2022/01/13 00:07:24;;;;;;;40.17;18.83;;;;;;;0.90;100.00;101420.56;5060893;28;20045;-78
2022/01/13 00:10:09;;;;;;;32.72;15.70;;;;;;;0.94;100.00;101435.34;5060924;28;20103;-78
2022/01/13 00:13:03;;;;;;;33.80;17.17;;;;;;;0.98;100.00;101439.84;5075095;28;20040;-79
2022/01/13 00:15:50;;;;;;;42.15;21.25;;;;;;;0.98;100.00;101457.91;5075186;28;20422;-78
2022/01/13 00:18:48;;;;;;;30.33;15.23;;;;;;;0.95;100.00;101462.94;5075008;28;20426;-78
2022/01/13 00:21:38;;;;;;;32.17;15.55;;;;;;;0.87;100.00;101465.19;5074958;28;20040;-78
2022/01/13 00:24:22;;;;;;;31.38;16.65;;;;;;;0.86;100.00;101465.13;5075647;28;20044;-78
2022/01/13 00:27:11;;;;;;;32.42;14.05;;;;;;;0.96;100.00;101476.72;5060789;28;20503;-78
2022/01/13 00:29:59;;;;;;;27.33;14.40;;;;;;;1.00;100.00;101486.34;5074881;28;20048;-78
2022/01/13 00:32:45;;;;;;;34.42;14.68;;;;;;;0.99;100.00;101476.84;5075727;28;20051;-78
2022/01/13 00:35:30;;;;;;;31.52;15.10;;;;;;;1.04;100.00;101485.63;5060920;28;20045;-78
2022/01/13 00:38:14;;;;;;;23.55;12.23;;;;;;;0.94;100.00;101492.13;5074809;28;20048;-78
2022/01/13 00:40:59;;;;;;;29.02;13.13;;;;;;;1.08;100.00;101485.84;5060634;28;20044;-78
2022/01/13 00:43:46;;;;;;;24.10;12.95;;;;;;;1.03;100.00;101491.63;5074903;28;20041;-78
2022/01/13 00:46:41;;;;;;;25.42;13.23;;;;;;;1.03;100.00;101501.94;5075536;28;20105;-78
2022/01/13 00:49:26;;;;;;;26.20;13.02;;;;;;;0.98;100.00;101503.47;5074861;28;20047;-78
2022/01/13 00:52:11;;;;;;;26.27;14.00;;;;;;;1.07;100.00;101520.22;5078354;28;20083;-78
2022/01/13 00:54:56;;;;;;;26.23;12.00;;;;;;;1.06;100.00;101521.00;5111937;28;20451;-78
2022/01/13 00:57:41;;;;;;;20.90;11.48;;;;;;;1.13;100.00;101486.00;5084634;28;20048;-78
2022/01/13 01:00:26;;;;;;;25.30;12.93;;;;;;;1.19;100.00;101459.56;5099427;28;20044;-78
2022/01/13 01:03:11;;;;;;;28.83;13.20;;;;;;;1.15;100.00;101443.94;5099228;28;20070;-78
2022/01/13 01:05:56;;;;;;;30.42;14.48;;;;;;;1.12;100.00;101443.84;5084194;28;20044;-78
2022/01/13 01:08:42;;;;;;;24.85;12.73;;;;;;;1.16;100.00;101426.75;5099386;28;20037;-78
2022/01/13 01:11:27;;;;;;;26.00;14.20;;;;;;;1.06;100.00;101425.53;5099280;28;20040;-78
2022/01/13 01:14:13;;;;;;;24.70;12.05;;;;;;;1.06;100.00;101425.53;5099111;28;20052;-78
2022/01/13 01:16:58;;;;;;;33.40;14.88;;;;;;;1.15;100.00;101400.06;5083976;28;20040;-78
2022/01/13 01:19:47;;;;;;;28.88;14.85;;;;;;;1.13;100.00;101391.38;5084090;28;20040;-78
2022/01/13 01:22:42;;;;;;;31.20;15.57;;;;;;;1.22;100.00;101400.31;5099095;28;20058;-78
2022/01/13 01:28:18;;;;;;;22.63;12.43;;;;;;;1.08;100.00;101389.47;5098773;28;20036;-78
2022/01/13 01:31:03;;;;;;;19.23;10.82;;;;;;;1.00;100.00;101380.53;5098810;28;20040;-78
2022/01/13 01:34:00;;;;;;;23.80;11.90;;;;;;;1.02;100.00;101407.28;5083798;28;20040;-78
2022/01/13 01:36:46;;;;;;;19.90;10.57;;;;;;;1.00;100.00;101409.78;5083697;28;20059;-78
2022/01/13 01:39:30;;;;;;;16.98;9.82;;;;;;;0.92;100.00;101419.81;5083600;28;20040;-78
2022/01/13 01:42:18;;;;;;;16.08;9.60;;;;;;;1.11;100.00;101433.47;5083579;28;20040;-78
2022/01/13 01:45:03;;;;;;;17.58;9.60;;;;;;;1.08;100.00;101434.22;5098374;28;20040;-78
2022/01/13 01:47:52;;;;;;;18.27;9.48;;;;;;;1.06;100.00;101435.84;5098450;28;20109;-78
2022/01/13 01:50:38;;;;;;;22.15;11.02;;;;;;;1.16;100.00;101434.50;5083467;28;20044;-78
2022/01/13 01:53:23;;;;;;;20.52;11.00;;;;;;;1.13;100.00;101434.38;5098086;28;20059;-78
2022/01/13 01:56:09;;;;;;;20.27;10.57;;;;;;;1.07;100.00;101423.81;5111683;28;20462;-77
2022/01/13 01:58:56;;;;;;;21.38;11.43;;;;;;;1.10;100.00;101419.66;5083264;28;20043;-78
2022/01/13 02:01:41;;;;;;;18.63;11.10;;;;;;;1.19;100.00;101429.47;5098262;28;20047;-78
2022/01/13 02:04:27;;;;;;;22.98;11.30;;;;;;;1.07;100.00;101424.72;5082694;28;20356;-77
2022/01/13 02:07:12;;;;;;;26.02;10.90;;;;;;;1.18;100.00;101435.44;5068904;28;20040;-78
2022/01/13 02:09:57;;;;;;;21.52;12.50;;;;;;;1.17;100.00;101429.41;5083069;28;20040;-77
2022/01/13 02:12:46;;;;;;;18.98;10.45;;;;;;;1.05;100.00;101422.91;5083109;28;20136;-78
2022/01/13 02:15:33;;;;;;;19.55;11.48;;;;;;;1.15;100.00;101430.16;5114139;28;20055;-78
2022/01/13 02:18:18;;;;;;;19.02;10.88;;;;;;;0.76;100.00;101344.34;5097836;28;20040;-77
2022/01/13 02:21:04;;;;;;;18.92;10.48;;;;;;;1.17;100.00;101423.38;5082817;28;20044;-78
2022/01/13 02:23:48;;;;;;;19.70;10.90;;;;;;;1.09;100.00;101417.03;5082726;28;20043;-77
2022/01/13 02:26:32;;;;;;;19.75;11.55;;;;;;;1.23;100.00;101410.69;5097645;28;20040;-77
2022/01/13 02:29:16;;;;;;;19.52;10.55;;;;;;;1.18;100.00;101399.31;5082593;28;20044;-77
2022/01/13 02:32:02;;;;;;;15.68;9.75;;;;;;;1.26;100.00;101415.97;5097577;28;20110;-77
2022/01/13 02:34:48;;;;;;;18.23;9.75;;;;;;;1.21;100.00;101427.84;5082597;28;20056;-77
2022/01/13 02:37:32;;;;;;;18.35;9.77;;;;;;;1.23;100.00;101423.59;5082683;28;20043;-77
2022/01/13 02:40:16;;;;;;;20.25;11.88;;;;;;;1.15;100.00;101418.16;5068269;28;20105;-78
2022/01/13 02:43:01;;;;;;;20.67;11.18;;;;;;;1.14;100.00;101415.53;5097429;28;20040;-77
2022/01/13 02:46:02;;;;;;;21.92;10.95;;;;;;;1.19;100.00;101406.22;5097539;28;20036;-77
2022/01/13 02:48:48;;;;;;;18.95;10.95;;;;;;;1.27;100.00;101419.41;5082423;28;20036;-78
2022/01/13 02:51:33;;;;;;;21.58;11.68;;;;;;;1.14;100.00;101418.97;5082165;28;20043;-77
2022/01/13 02:54:18;;;;;;;19.40;10.85;;;;;;;1.23;100.00;101414.97;5082126;28;20040;-77
2022/01/13 02:57:03;;;;;;;20.05;12.30;;;;;;;1.27;100.00;101407.41;5097138;28;20044;-77
2022/01/13 02:59:47;;;;;;;23.15;11.48;;;;;;;1.34;100.00;101437.81;5068024;28;20044;-77
2022/01/13 03:02:33;;;;;;;23.88;13.88;;;;;;;1.39;100.00;101432.81;5082200;28;20054;-77
2022/01/13 03:05:18;;;;;;;22.27;12.20;;;;;;;1.31;100.00;101422.19;5082033;28;20040;-78
2022/01/13 03:08:03;;;;;;;24.90;13.50;;;;;;;1.36;100.00;101407.75;5110419;28;20082;-78
2022/01/13 03:10:48;;;;;;;20.55;12.35;;;;;;;1.37;100.00;101396.59;5081845;28;20141;-78
2022/01/13 03:13:33;;;;;;;27.70;12.88;;;;;;;1.26;100.00;101381.53;5096822;28;20119;-78
2022/01/13 03:16:17;;;;;;;25.20;14.90;;;;;;;1.38;100.00;101377.69;5080812;28;20524;-77
2022/01/13 03:19:02;;;;;;;26.15;15.15;;;;;;;1.25;100.00;101360.00;5096624;28;20379;-77
2022/01/13 03:21:47;;;;;;;26.83;16.17;;;;;;;1.23;100.00;101347.84;5096703;28;20420;-77
2022/01/13 03:24:31;;;;;;;25.55;13.75;;;;;;;1.13;100.00;101359.53;5096619;28;20448;-77
2022/01/13 03:27:20;;;;;;;26.90;15.77;;;;;;;1.17;100.00;101356.28;5110108;28;20040;-77
2022/01/13 03:30:07;;;;;;;28.58;14.93;;;;;;;1.11;100.00;101364.66;5081459;28;20036;-77
2022/01/13 03:32:51;;;;;;;30.42;17.38;;;;;;;1.09;100.00;101357.66;5096475;28;20098;-77
2022/01/13 03:35:38;;;;;;;29.23;17.38;;;;;;;1.13;100.00;101363.00;5096547;28;20498;-77
2022/01/13 03:38:22;;;;;;;27.60;17.33;;;;;;;1.17;100.00;101364.88;5096435;28;20063;-78
2022/01/13 03:41:07;;;;;;;26.95;15.02;;;;;;;1.13;100.00;101362.13;5096298;28;20074;-77
2022/01/13 03:43:54;;;;;;;28.35;16.02;;;;;;;1.10;100.00;101370.63;5081387;28;20044;-77
2022/01/13 03:46:38;;;;;;;27.23;15.65;;;;;;;1.04;100.00;101365.25;5109939;28;20070;-77
2022/01/13 03:49:23;;;;;;;30.27;15.85;;;;;;;1.15;100.00;101369.09;5096206;28;20040;-77
2022/01/13 03:52:22;;;;;;;25.65;15.63;;;;;;;1.13;100.00;101382.75;5081087;28;20056;-78
2022/01/13 03:55:35;;;;;;;30.83;17.45;;;;;;;1.13;100.00;101391.38;5081190;28;20040;-77
2022/01/13 03:58:57;;;;;;;31.88;17.05;;;;;;;1.03;100.00;101389.28;5066883;28;20043;-77
2022/01/13 04:01:55;;;;;;;29.35;16.92;;;;;;;1.06;100.00;101388.50;5067046;28;20425;-78
2022/01/13 04:04:48;;;;;;;35.22;17.60;;;;;;;1.13;100.00;101381.06;5109662;28;20396;-78
2022/01/13 04:07:32;;;;;;;27.17;16.02;;;;;;;0.95;100.00;101380.38;5081030;28;20403;-78
2022/01/13 04:10:51;;;;;;;33.30;20.50;;;;;;;1.04;100.00;101395.31;5095933;28;20356;-78
2022/01/13 04:16:39;;;;;;;138.60;53.58;;;;;;;1.06;100.00;101370.44;5095938;28;20039;-78
2022/01/13 04:19:24;;;;;;;41.40;23.77;;;;;;;0.98;100.00;101372.75;5080856;28;20036;-78
2022/01/13 04:22:09;;;;;;;61.40;37.83;;;;;;;0.87;100.00;101359.41;5080854;28;20423;-78
2022/01/13 04:24:54;;;;;;;39.25;23.23;;;;;;;1.02;100.00;101382.34;5096026;28;20036;-77
2022/01/13 04:27:42;;;;;;;66.30;38.80;;;;;;;1.01;100.00;101375.44;5067300;28;20356;-78
2022/01/13 04:30:44;;;;;;;34.97;18.98;;;;;;;1.06;100.00;101363.59;5084962;28;20325;-78
2022/01/13 04:33:34;;;;;;;35.38;19.83;;;;;;;0.99;100.00;101360.72;5099843;28;20115;-78
2022/01/13 04:36:18;;;;;;;29.25;17.55;;;;;;;1.00;100.00;101345.28;5099804;28;20040;-78
2022/01/13 04:39:04;;;;;;;35.75;21.20;;;;;;;0.96;100.00;101356.31;5070635;28;20048;-78
2022/01/13 04:41:49;;;;;;;26.98;17.85;;;;;;;0.87;100.00;101346.50;5099732;28;20109;-78
2022/01/13 04:44:33;;;;;;;26.40;15.98;;;;;;;0.99;100.00;101352.97;5070608;28;20360;-78
2022/01/13 04:47:18;;;;;;;31.88;20.73;;;;;;;0.92;100.00;101344.13;5113109;28;20040;-77
2022/01/13 04:50:03;;;;;;;27.27;16.83;;;;;;;0.97;100.00;101340.00;5099476;28;20069;-77
2022/01/13 04:52:48;;;;;;;30.00;18.15;;;;;;;1.04;100.00;101344.59;5101118;28;20085;-78
2022/01/13 04:55:35;;;;;;;35.15;18.88;;;;;;;0.96;100.00;101339.97;5099582;28;20047;-77
2022/01/13 04:58:22;;;;;;;115.75;50.72;;;;;;;1.01;100.00;101341.00;5099313;28;20048;-77
2022/01/13 05:01:07;;;;;;;124.18;49.45;;;;;;;1.02;100.00;101329.88;5084266;28;20123;-78
2022/01/13 05:03:52;;;;;;;119.55;51.72;;;;;;;1.00;100.00;101332.38;5099293;28;20428;-77
2022/01/13 05:06:36;;;;;;;39.70;22.25;;;;;;;1.07;100.00;101325.75;5099208;28;20040;-77
2022/01/13 05:09:20;;;;;;;34.42;19.02;;;;;;;1.00;100.00;101313.44;5099115;28;20329;-77
2022/01/13 05:12:05;;;;;;;29.00;18.02;;;;;;;1.08;100.00;101318.09;5098897;28;20036;-77
2022/01/13 05:14:54;;;;;;;35.28;18.38;;;;;;;1.09;100.00;101316.38;5084205;28;20425;-77
2022/01/13 05:20:39;;;;;;;29.10;17.40;;;;;;;1.14;100.00;101317.44;5102898;28;20051;-78
2022/01/13 05:23:23;;;;;;;30.98;17.33;;;;;;;1.08;100.00;101310.34;5103216;28;20043;-77
2022/01/13 05:26:09;;;;;;;33.47;19.00;;;;;;;1.08;100.00;101318.09;5089339;28;20051;-78
2022/01/13 05:28:54;;;;;;;32.70;19.48;;;;;;;1.10;100.00;101316.41;5104104;28;20048;-78
2022/01/13 05:31:38;;;;;;;34.13;19.77;;;;;;;1.17;100.00;101315.84;5103688;28;20046;-77
2022/01/13 05:34:22;;;;;;;39.28;19.98;;;;;;;1.19;100.00;101313.31;5102702;28;20105;-77
2022/01/13 05:37:07;;;;;;;37.67;21.38;;;;;;;1.16;100.00;101311.47;5117837;28;20048;-77
2022/01/13 05:39:52;;;;;;;37.47;20.52;;;;;;;1.11;100.00;101317.31;5116884;28;20063;-77
2022/01/13 05:42:36;;;;;;;34.65;19.90;;;;;;;1.14;100.00;101333.81;5117562;28;20092;-77
2022/01/13 05:45:28;;;;;;;36.15;20.35;;;;;;;1.11;100.00;101330.22;5088295;28;20075;-77
2022/01/13 05:48:12;;;;;;;35.58;19.15;;;;;;;1.15;100.00;101327.81;5132107;27;20043;-77
2022/01/13 05:50:57;;;;;;;41.20;22.80;;;;;;;1.14;100.00;101314.84;5118935;28;20044;-77
2022/01/13 05:53:41;;;;;;;39.72;22.38;;;;;;;0.98;100.00;101318.56;5118683;28;20055;-77
2022/01/13 05:56:25;;;;;;;40.08;21.33;;;;;;;0.91;100.00;101289.06;5132736;27;20032;-78
2022/01/13 05:59:09;;;;;;;36.10;21.80;;;;;;;1.10;100.00;101305.22;5117827;28;20040;-78
2022/01/13 06:01:54;;;;;;;38.80;21.58;;;;;;;1.19;100.00;101302.97;5118561;28;20046;-77
2022/01/13 06:04:38;;;;;;;37.30;21.70;;;;;;;1.11;100.00;101288.94;5118642;28;20050;-77
2022/01/13 06:07:22;;;;;;;45.28;23.13;;;;;;;1.11;100.00;101294.09;5103411;28;20063;-77
2022/01/13 06:10:09;;;;;;;39.95;21.85;;;;;;;1.13;100.00;101279.53;5103406;28;20036;-77
2022/01/13 06:12:54;;;;;;;40.25;22.48;;;;;;;1.17;100.00;101295.19;5118194;28;20043;-76
2022/01/13 06:15:39;;;;;;;42.03;22.45;;;;;;;1.16;100.00;101285.66;5102153;28;20043;-77
2022/01/13 06:18:25;;;;;;;42.28;24.52;;;;;;;1.13;100.00;101280.41;5101343;28;20040;-77
2022/01/13 06:21:09;;;;;;;39.75;23.85;;;;;;;1.10;100.00;101298.34;5087058;28;20051;-77
2022/01/13 06:23:54;;;;;;;44.05;22.95;;;;;;;1.08;100.00;101294.84;5117025;28;20070;-76
2022/01/13 06:26:39;;;;;;;39.28;23.63;;;;;;;1.24;100.00;101303.16;5087231;28;20048;-76
2022/01/13 06:29:23;;;;;;;39.97;22.27;;;;;;;1.25;100.00;101294.59;5101236;28;20043;-76
2022/01/13 06:32:07;;;;;;;46.28;25.20;;;;;;;1.28;100.00;101307.59;5084217;28;20351;-76
2022/01/13 06:34:52;;;;;;;49.05;26.77;;;;;;;1.19;100.00;101313.31;5116151;28;20043;-77
2022/01/13 06:37:37;;;;;;;44.53;25.45;;;;;;;1.21;100.00;101322.00;5115991;28;20054;-77
2022/01/13 06:40:21;;;;;;;45.45;26.17;;;;;;;1.26;100.00;101329.91;5086510;28;20040;-77
2022/01/13 06:43:06;;;;;;;44.30;24.52;;;;;;;1.26;100.00;101317.88;5100838;28;20050;-76
2022/01/13 06:45:50;;;;;;;38.92;21.90;;;;;;;1.20;100.00;101320.22;5115883;28;20043;-78
2022/01/13 06:48:34;;;;;;;42.08;23.40;;;;;;;1.24;100.00;101316.94;5086353;28;20424;-76
2022/01/13 06:51:18;;;;;;;46.67;25.85;;;;;;;1.29;100.00;101319.69;5083673;28;20130;-77
2022/01/13 06:54:03;;;;;;;55.78;27.52;;;;;;;1.20;100.00;101320.22;5115522;28;20051;-76
2022/01/13 06:56:47;;;;;;;49.97;26.33;;;;;;;1.23;100.00;101314.28;5100536;28;20054;-77
2022/01/13 06:59:32;;;;;;;43.53;24.88;;;;;;;1.29;100.00;101301.63;5129341;27;20040;-77
2022/01/13 07:02:16;;;;;;;47.10;23.98;;;;;;;1.35;100.00;101297.53;5116796;28;20384;-77
2022/01/13 07:05:01;;;;;;;50.20;25.58;;;;;;;1.27;100.00;101291.25;5101515;28;20100;-77
2022/01/13 07:07:45;;;;;;;50.88;26.02;;;;;;;1.32;100.00;101284.53;5101279;28;20040;-77
2022/01/13 07:10:30;;;;;;;46.33;24.70;;;;;;;1.31;100.00;101289.66;5116552;28;20043;-77
2022/01/13 07:13:14;;;;;;;49.38;25.08;;;;;;;1.40;100.00;101285.69;5085196;28;20047;-77
2022/01/13 07:16:01;;;;;;;48.83;26.08;;;;;;;1.40;100.00;101274.50;5117087;28;20089;-75
2022/01/13 07:18:45;;;;;;;53.53;26.80;;;;;;;1.33;100.00;101259.59;5101878;28;20085;-77
2022/01/13 07:21:29;;;;;;;54.25;28.65;;;;;;;1.38;100.00;101268.38;5087622;28;20035;-77
2022/01/13 07:24:14;;;;;;;54.38;27.35;;;;;;;1.42;100.00;101274.53;5117382;28;20109;-77
2022/01/13 07:26:58;;;;;;;47.40;24.70;;;;;;;1.46;100.00;101271.22;5087363;28;20035;-77
2022/01/13 07:29:43;;;;;;;59.25;31.63;;;;;;;1.40;100.00;101253.84;5117287;28;20039;-77
2022/01/13 07:32:27;;;;;;;51.03;26.27;;;;;;;1.50;100.00;101244.72;5102113;28;20035;-77
2022/01/13 07:35:11;;;;;;;47.10;25.83;;;;;;;1.43;100.00;101250.47;5102129;28;20044;-79
2022/01/13 07:37:56;;;;;;;132.18;61.55;;;;;;;1.45;100.00;101230.75;5087814;28;20051;-77
2022/01/13 07:40:41;;;;;;;62.17;31.67;;;;;;;1.45;100.00;101221.28;5116083;28;20035;-78
2022/01/13 07:43:26;;;;;;;50.95;24.63;;;;;;;1.49;100.00;101217.09;5101219;28;20040;-77
2022/01/13 07:46:11;;;;;;;54.25;27.77;;;;;;;1.54;100.00;101211.28;5101230;28;20115;-78
2022/01/13 07:48:55;;;;;;;42.35;23.55;;;;;;;1.48;100.00;101213.66;5085476;28;20043;-77
2022/01/13 07:51:40;;;;;;;49.28;25.25;;;;;;;1.57;100.00;101213.97;5099391;28;20039;-78
2022/01/13 07:54:27;;;;;;;46.28;27.83;;;;;;;1.50;100.00;101213.72;5068408;28;20051;-77
2022/01/13 07:57:11;;;;;;;54.55;30.20;;;;;;;1.51;100.00;101213.75;5128200;27;20048;-78
2022/01/13 07:59:56;;;;;;;62.55;40.30;;;;;;;1.50;100.00;101216.31;5114546;28;20435;-78
2022/01/13 08:02:41;;;;;;;60.65;35.45;;;;;;;1.61;100.00;101210.66;5099140;28;20047;-78
2022/01/13 08:05:26;;;;;;;89.45;35.70;;;;;;;1.64;100.00;101194.38;5114414;28;20044;-78
2022/01/13 08:08:10;;;;;;;49.38;27.70;;;;;;;1.64;100.00;101196.97;5099249;28;20499;-78
2022/01/13 08:10:54;;;;;;;49.28;26.52;;;;;;;1.64;100.00;101194.38;5099354;28;20050;-78
2022/01/13 08:13:39;;;;;;;51.53;27.77;;;;;;;1.61;100.00;101190.00;5099267;28;20040;-78
2022/01/13 08:16:32;;;;;;;42.10;22.10;;;;;;;1.63;100.00;101187.47;5099409;28;20051;-78
2022/01/13 08:22:19;;;;;;;69.30;30.50;;;;;;;1.70;100.00;101207.50;5101043;28;20040;-78
2022/01/13 08:25:04;;;;;;;55.30;26.38;;;;;;;1.69;100.00;101202.28;5101518;28;20035;-78
2022/01/13 08:27:48;;;;;;;39.92;22.33;;;;;;;1.66;100.00;101228.91;5086658;28;20039;-78
2022/01/13 08:30:33;;;;;;;66.38;29.58;;;;;;;1.84;100.00;101238.94;5101229;28;20044;-78
2022/01/13 08:33:22;;;;;;;74.35;33.00;;;;;;;1.83;100.00;101248.41;5116588;28;20036;-78
2022/01/13 08:36:07;;;;;;;61.80;28.50;;;;;;;1.86;100.00;101250.22;5086699;28;20051;-78
2022/01/13 08:38:52;;;;;;;107.30;47.05;;;;;;;1.79;100.00;101246.56;5101156;28;20046;-78
2022/01/13 08:41:36;;;;;;;90.68;41.13;;;;;;;1.87;100.00;101255.44;5116048;28;20046;-79
2022/01/13 08:44:21;;;;;;;107.55;45.28;;;;;;;1.92;100.00;101258.19;5086698;28;20051;-78
2022/01/13 08:47:05;;;;;;;51.47;25.00;;;;;;;1.98;100.00;101255.81;5115954;28;20343;-78
2022/01/13 08:49:50;;;;;;;63.30;28.25;;;;;;;1.97;100.00;101250.56;5098148;28;20047;-78
2022/01/13 08:52:38;;;;;;;58.47;28.98;;;;;;;1.92;100.00;101231.44;5100896;28;20048;-78
2022/01/13 08:55:23;;;;;;;61.28;28.65;;;;;;;2.06;100.00;101236.25;5101465;28;20031;-78
2022/01/13 08:58:07;;;;;;;48.10;24.40;;;;;;;2.07;100.00;101242.28;5116367;28;20048;-78
2022/01/13 09:00:53;;;;;;;50.45;25.23;;;;;;;2.12;100.00;101253.66;5086631;28;20046;-78
2022/01/13 09:03:37;;;;;;;53.47;26.23;;;;;;;2.07;100.00;101243.16;5086716;28;20122;-80
2022/01/13 09:06:22;;;;;;;46.05;23.63;;;;;;;2.20;100.00;101234.09;5101327;28;20043;-79
2022/01/13 09:09:06;;;;;;;39.95;22.35;;;;;;;2.25;100.00;101234.25;5116082;28;20051;-79
2022/01/13 09:11:50;;;;;;;37.28;20.15;;;;;;;2.27;100.00;101238.63;5116010;28;20044;-80
2022/01/13 09:14:38;;;;;;;45.67;22.67;;;;;;;2.20;100.00;101223.75;5087198;28;20060;-79
2022/01/13 09:17:23;;;;;;;40.25;21.70;;;;;;;2.25;100.00;101221.31;5073423;28;20044;-80
2022/01/13 09:20:10;;;;;;;38.60;21.15;;;;;;;2.27;100.00;101220.50;5104762;28;20040;-80
2022/01/13 09:22:56;;;;;;;35.80;21.00;;;;;;;2.37;100.00;101220.81;5119519;28;20064;-80
2022/01/13 09:25:40;;;;;;;36.28;21.92;;;;;;;2.39;100.00;101226.91;5090064;28;20071;-79
2022/01/13 09:28:25;;;;;;;38.88;22.35;;;;;;;2.35;100.00;101228.53;5090251;28;20043;-79
2022/01/13 09:31:09;;;;;;;31.65;19.83;;;;;;;2.15;100.00;101163.28;5119224;28;20349;-80
2022/01/13 09:33:54;;;;;;;32.83;18.25;;;;;;;2.38;100.00;101209.66;5103943;28;20305;-80
2022/01/13 09:36:39;;;;;;;34.20;19.80;;;;;;;2.48;100.00;101215.13;5103888;28;20101;-79
2022/01/13 09:39:24;;;;;;;33.08;18.90;;;;;;;2.46;100.00;101192.63;5103956;28;20035;-80
2022/01/13 09:42:10;;;;;;;38.63;19.25;;;;;;;2.54;100.00;101204.09;5103827;28;20032;-80
2022/01/13 09:44:57;;;;;;;35.63;18.42;;;;;;;2.60;100.00;101193.03;5089594;28;20437;-80
2022/01/13 09:47:43;;;;;;;33.95;21.20;;;;;;;2.62;100.00;101199.16;5118019;28;20302;-80
2022/01/13 09:50:27;;;;;;;32.55;18.67;;;;;;;2.56;100.00;101167.09;5086675;28;20082;-80
2022/01/13 09:53:12;;;;;;;31.20;18.05;;;;;;;2.68;100.00;101202.78;5103375;28;20130;-79
2022/01/13 09:55:57;;;;;;;32.10;18.40;;;;;;;2.76;100.00;101201.31;5089414;28;20043;-80
2022/01/13 09:58:44;;;;;;;32.75;16.15;;;;;;;2.42;100.00;101150.28;5118770;28;20119;-80
2022/01/13 10:01:28;;;;;;;35.92;16.83;;;;;;;2.64;100.00;101177.66;5103847;28;20439;-81
2022/01/13 10:04:13;;;;;;;31.35;16.42;;;;;;;2.80;100.00;101197.09;5103452;28;20051;-80
2022/01/13 10:06:57;;;;;;;36.33;20.00;;;;;;;2.76;100.00;101198.72;5120315;27;20047;-80
2022/01/13 10:09:53;;;;;;;36.55;19.65;;;;;;;2.84;100.00;101192.88;5103483;28;20039;-80
2022/01/13 10:12:39;;;;;;;31.50;16.35;;;;;;;2.80;100.00;101174.69;5118486;28;20047;-80
2022/01/13 10:18:42;;;;;;;32.33;16.67;;;;;;;2.85;100.00;101163.56;5118587;28;20044;-80
2022/01/13 10:21:26;;;;;;;33.72;19.85;;;;;;;2.87;100.00;101185.22;5089247;28;20054;-80
2022/01/13 10:24:12;;;;;;;29.20;16.65;;;;;;;2.71;100.00;101156.31;5118130;28;20046;-79
2022/01/13 10:27:12;;;;;;;33.55;18.05;;;;;;;2.84;100.00;101188.59;5088297;28;20048;-80
2022/01/13 10:30:00;;;;;;;39.75;18.95;;;;;;;2.88;100.00;101185.25;5103138;28;20047;-80
2022/01/13 10:32:45;;;;;;;32.85;17.35;;;;;;;2.97;100.00;101180.31;5118291;28;20039;-80
2022/01/13 10:35:34;;;;;;;33.42;17.98;;;;;;;2.83;100.00;101152.28;5100150;28;20059;-80
2022/01/13 10:38:20;;;;;;;31.02;18.80;;;;;;;2.90;100.00;101162.88;5102864;28;20436;-79
2022/01/13 10:41:38;;;;;;;39.38;19.67;;;;;;;2.94;100.00;101172.47;5102769;28;20085;-79
2022/01/13 10:44:22;;;;;;;32.95;17.52;;;;;;;2.96;100.00;101165.63;5088889;28;20043;-80
2022/01/13 10:47:07;;;;;;;40.65;20.48;;;;;;;2.88;100.00;101150.72;5088371;28;20040;-80
2022/01/13 10:49:51;;;;;;;33.10;17.98;;;;;;;2.92;100.00;101137.88;5088478;28;20035;-80
2022/01/13 10:52:36;;;;;;;35.83;17.83;;;;;;;2.97;100.00;101141.50;5088383;28;20048;-79
2022/01/13 10:55:23;;;;;;;38.03;18.83;;;;;;;2.96;100.00;101144.06;5117764;28;20061;-80
2022/01/13 10:58:08;;;;;;;37.50;20.58;;;;;;;2.99;100.00;101142.44;5117430;28;20424;-79
2022/01/13 11:00:53;;;;;;;37.53;19.63;;;;;;;2.94;100.00;101146.59;5088003;28;20047;-79
2022/01/13 11:03:41;;;;;;;35.33;18.10;;;;;;;2.88;100.00;101133.47;5087930;28;20101;-79
2022/01/13 11:06:28;;;;;;;34.40;17.95;;;;;;;2.95;100.00;101142.28;5116997;28;20036;-79
2022/01/13 11:09:17;;;;;;;31.20;17.52;;;;;;;3.04;100.00;101151.16;5102172;28;20168;-78
2022/01/13 11:12:03;;;;;;;33.45;18.13;;;;;;;2.86;100.00;101142.03;5101855;28;20036;-79
2022/01/13 11:14:52;;;;;;;47.47;22.13;;;;;;;2.92;100.00;101140.47;5115219;28;20392;-80
2022/01/13 11:17:38;;;;;;;40.83;22.05;;;;;;;3.06;100.00;101146.06;5100065;28;20055;-79
2022/01/13 11:20:24;;;;;;;71.65;36.55;;;;;;;2.98;100.00;101127.72;5114338;28;20039;-79
2022/01/13 11:23:09;;;;;;;40.53;20.98;;;;;;;3.04;100.00;101121.81;5085647;28;20124;-79
2022/01/13 11:25:56;;;;;;;43.33;26.52;;;;;;;3.04;100.00;101121.81;5085644;28;20051;-79
2022/01/13 11:28:41;;;;;;;35.83;21.60;;;;;;;3.06;100.00;101121.88;5128621;27;20403;-79
2022/01/13 11:31:26;;;;;;;40.92;25.02;;;;;;;3.07;100.00;101119.31;5114907;28;20254;-79
2022/01/13 11:34:11;;;;;;;35.15;19.05;;;;;;;3.04;100.00;101119.25;5114943;28;20032;-78
2022/01/13 11:36:56;;;;;;;35.55;20.92;;;;;;;3.10;100.00;101103.00;5069903;28;20052;-78
2022/01/13 11:39:43;;;;;;;28.65;16.90;;;;;;;3.04;100.00;101096.81;5116996;28;20126;-79
2022/01/13 11:42:27;;;;;;;29.67;15.80;;;;;;;3.10;100.00;101109.03;5116913;28;20104;-79
2022/01/13 11:45:14;;;;;;;26.95;16.13;;;;;;;3.04;100.00;101112.34;5117212;28;20035;-79
2022/01/13 11:48:25;;;;;;;23.15;13.75;;;;;;;3.04;100.00;101112.34;5116770;28;20085;-78
2022/01/13 11:51:17;;;;;;;29.63;16.65;;;;;;;2.99;100.00;101116.53;5116747;28;20074;-78
2022/01/13 11:54:04;;;;;;;21.52;14.20;;;;;;;3.07;100.00;101115.84;5087091;28;20051;-78
2022/01/13 11:57:15;;;;;;;27.30;15.48;;;;;;;3.08;100.00;101108.13;5101401;28;20036;-78
2022/01/13 12:00:00;;;;;;;25.52;15.95;;;;;;;3.07;100.00;101103.78;5101659;28;20035;-78
2022/01/13 12:02:44;;;;;;;26.30;16.10;;;;;;;3.08;100.00;101090.00;5101296;28;20039;-78
2022/01/13 12:05:42;;;;;;;31.90;17.25;;;;;;;3.13;100.00;101084.94;5101290;28;20050;-78
2022/01/13 12:08:56;;;;;;;40.97;22.27;;;;;;;3.07;100.00;101075.31;5101406;28;20144;-78
2022/01/13 12:11:51;;;;;;;48.95;24.77;;;;;;;3.10;100.00;101065.03;5116906;28;20124;-78
2022/01/13 12:14:38;;;;;;;79.68;37.38;;;;;;;2.98;100.00;101057.81;5101145;28;20383;-78
2022/01/13 12:17:27;;;;;;;29.05;19.02;;;;;;;3.02;100.00;101051.91;5086947;28;20126;-78
2022/01/13 12:23:42;;;;;;;34.50;19.38;;;;;;;3.02;100.00;101048.41;5101644;28;20036;-78
2022/01/13 12:26:32;;;;;;;34.22;17.58;;;;;;;3.00;100.00;101047.53;5116537;28;20039;-79
2022/01/13 12:29:19;;;;;;;35.17;18.48;;;;;;;3.03;100.00;101045.00;5086913;28;20091;-78
2022/01/13 12:32:06;;;;;;;32.53;19.75;;;;;;;2.83;100.00;101020.31;5101586;28;20043;-79
2022/01/13 12:34:51;;;;;;;48.05;23.98;;;;;;;3.01;100.00;101038.91;5101310;28;20046;-80
2022/01/13 12:37:39;;;;;;;40.50;22.38;;;;;;;3.00;100.00;101040.63;5101291;28;20051;-78
2022/01/13 12:40:25;;;;;;;40.50;23.42;;;;;;;2.93;100.00;101036.13;5101502;28;20051;-79
2022/01/13 12:43:34;;;;;;;40.13;25.33;;;;;;;2.94;100.00;101044.78;5101406;28;20044;-79
2022/01/13 12:46:22;;;;;;;29.60;18.45;;;;;;;2.93;100.00;101038.72;5100943;28;20035;-78
2022/01/13 12:49:07;;;;;;;33.30;21.23;;;;;;;2.87;100.00;101042.88;5102334;28;20421;-79
2022/01/13 12:51:52;;;;;;;31.95;19.20;;;;;;;2.90;100.00;101030.00;5104598;28;20333;-78
2022/01/13 12:54:45;;;;;;;29.63;16.95;;;;;;;2.87;100.00;101035.97;5120191;28;20085;-78
2022/01/13 12:57:30;;;;;;;33.60;18.65;;;;;;;2.90;100.00;101036.06;5104888;28;20054;-78